createdAt,value
2019-05-12T00:02:00.923Z,101048.23
2019-05-12T00:04:31.327Z,101046.95
2019-05-12T00:07:01.783Z,101049.69
2019-05-12T00:09:32.226Z,101051.02
2019-05-12T00:12:02.815Z,101058.16
2019-05-12T00:14:33.237Z,101057.41
2019-05-12T00:17:03.685Z,101060.33
2019-05-12T00:19:34.085Z,101066.93
2019-05-12T00:22:04.568Z,101065.78
2019-05-12T00:24:34.973Z,101064.42
2019-05-12T00:27:12.987Z,101065.54
2019-05-12T00:29:43.418Z,101065.59
2019-05-12T00:32:13.881Z,101066.93
2019-05-12T00:34:44.330Z,101063.41
2019-05-12T00:37:14.790Z,101066.61
2019-05-12T00:39:47.710Z,101072.06
2019-05-12T00:42:18.357Z,101073.61
2019-05-12T00:44:49.801Z,101083.34
2019-05-12T00:47:21.252Z,101066.11
2019-05-12T00:49:54.138Z,101069.59
2019-05-12T00:52:28.195Z,101063.67
2019-05-12T00:54:59.703Z,101065.54
2019-05-12T00:57:31.461Z,101070.74
2019-05-12T01:00:05.777Z,101069.16
2019-05-12T01:02:38.971Z,101078.67
2019-05-12T01:05:13.285Z,101084.30
2019-05-12T01:07:48.194Z,101088.34
2019-05-12T01:10:20.082Z,101086.14
2019-05-12T01:12:51.840Z,101085.50
2019-05-12T01:15:23.390Z,101087.84
2019-05-12T01:17:58.570Z,101086.80
2019-05-12T01:20:29.878Z,101089.16
2019-05-12T01:23:11.365Z,101082.09
2019-05-12T01:25:43.224Z,101080.14
2019-05-12T01:28:15.187Z,101081.45
2019-05-12T01:30:48.276Z,101087.84
2019-05-12T01:33:22.595Z,101093.09
2019-05-12T01:35:54.864Z,101095.16
2019-05-12T01:38:28.771Z,101100.67
2019-05-12T01:41:17.974Z,101093.63
2019-05-12T01:44:05.772Z,101105.60
2019-05-12T01:46:53.303Z,101105.87
2019-05-12T01:49:41.547Z,101101.72
2019-05-12T01:52:29.794Z,101092.00
2019-05-12T01:55:18.597Z,101089.36
2019-05-12T01:58:08.354Z,101090.90
2019-05-12T02:00:59.004Z,101094.84
2019-05-12T02:03:48.299Z,101091.94
2019-05-12T02:06:30.298Z,101095.82
2019-05-12T02:09:14.445Z,101094.95
2019-05-12T02:11:58.394Z,101099.14
2019-05-12T02:14:31.380Z,101099.31
2019-05-12T02:17:02.930Z,101098.23
2019-05-12T02:19:34.793Z,101101.39
2019-05-12T02:22:09.723Z,101105.11
2019-05-12T02:24:41.276Z,101107.90
2019-05-12T02:27:13.238Z,101105.06
2019-05-12T02:29:45.305Z,101112.97
2019-05-12T02:32:17.274Z,101112.11
2019-05-12T02:34:48.926Z,101110.59
2019-05-12T02:37:21.092Z,101118.55
2019-05-12T02:39:55.554Z,101116.31
2019-05-12T02:42:26.247Z,101125.11
2019-05-12T02:44:59.233Z,101121.60
2019-05-12T02:47:34.422Z,101128.37
2019-05-12T02:50:09.199Z,101126.41
2019-05-12T02:52:44.333Z,101124.66
2019-05-12T02:55:16.505Z,101125.03
2019-05-12T02:57:50.717Z,101126.84
2019-05-12T03:00:24.224Z,101130.97
2019-05-12T03:02:59.666Z,101134.81
2019-05-12T03:05:34.878Z,101135.93
2019-05-12T03:08:05.751Z,101135.21
2019-05-12T03:10:37.500Z,101132.73
2019-05-12T03:13:09.255Z,101138.27
2019-05-12T03:15:41.020Z,101142.43
2019-05-12T03:18:14.650Z,101147.56
2019-05-12T03:20:46.169Z,101140.67
2019-05-12T03:23:19.088Z,101144.42
2019-05-12T03:25:54.442Z,101140.58
2019-05-12T03:28:26.153Z,101146.41
2019-05-12T03:31:23.550Z,101144.94
2019-05-12T03:33:59.872Z,101141.26
2019-05-12T03:36:34.541Z,101141.06
2019-05-12T03:39:04.235Z,101140.31
2019-05-12T03:41:37.918Z,101141.44
2019-05-12T03:44:09.981Z,101154.83
2019-05-12T03:46:45.628Z,101143.56
2019-05-12T03:49:17.078Z,101144.28
2019-05-12T03:51:48.941Z,101152.26
2019-05-12T03:54:24.348Z,101158.83
2019-05-12T03:56:58.804Z,101155.70
2019-05-12T03:59:30.361Z,101161.06
2019-05-12T04:02:04.693Z,101163.86
2019-05-12T04:04:36.950Z,101167.30
2019-05-12T04:07:08.707Z,101162.67
2019-05-12T04:09:40.177Z,101161.83
2019-05-12T04:12:14.840Z,101165.86
2019-05-12T04:14:45.723Z,101163.17
2019-05-12T04:17:28.640Z,101165.66
2019-05-12T04:20:45.272Z,101169.52
2019-05-12T04:23:27.556Z,101174.47
2019-05-12T04:26:10.968Z,101175.23
2019-05-12T04:28:39.980Z,101171.02
2019-05-12T04:31:15.837Z,101181.49
2019-05-12T04:33:59.616Z,101176.09
2019-05-12T04:37:17.517Z,101169.80
2019-05-12T04:40:14.919Z,101173.22
2019-05-12T04:42:44.849Z,101177.75
2019-05-12T04:45:16.025Z,101173.70
2019-05-12T04:47:48.109Z,101180.33
2019-05-12T04:50:38.087Z,101172.84
2019-05-12T04:53:09.851Z,101169.12
2019-05-12T04:55:44.611Z,101170.62
2019-05-12T04:58:17.152Z,101171.79
2019-05-12T05:00:48.802Z,101169.25
2019-05-12T05:03:20.767Z,101180.38
2019-05-12T05:05:54.951Z,101171.84
2019-05-12T05:08:26.405Z,101170.93
2019-05-12T05:10:58.189Z,101172.53
2019-05-12T05:13:48.174Z,101178.59
2019-05-12T05:18:59.165Z,101179.27
2019-05-12T05:21:30.923Z,101181.67
2019-05-12T05:24:04.221Z,101181.05
2019-05-12T05:26:38.253Z,101179.93
2019-05-12T05:29:13.374Z,101179.07
2019-05-12T05:31:44.815Z,101177.70
2019-05-12T05:37:20.283Z,101185.22
2019-05-12T05:39:49.535Z,101188.05
2019-05-12T05:42:22.187Z,101186.81
2019-05-12T05:45:10.012Z,101188.59
2019-05-12T05:47:41.135Z,101182.66
2019-05-12T05:50:24.912Z,101189.92
2019-05-12T05:52:58.170Z,101184.73
2019-05-12T05:55:35.958Z,101196.91
2019-05-12T05:58:10.707Z,101194.41
2019-05-12T06:00:43.624Z,101194.77
2019-05-12T06:03:23.313Z,101195.25
2019-05-12T06:05:53.511Z,101200.97
2019-05-12T06:08:27.866Z,101198.89
2019-05-12T06:10:59.219Z,101192.47
2019-05-12T06:13:32.381Z,101190.99
2019-05-12T06:16:05.191Z,101190.15
2019-05-12T06:18:37.255Z,101184.91
2019-05-12T06:21:09.015Z,101184.22
2019-05-12T06:23:43.488Z,101180.42
2019-05-12T06:26:20.955Z,101188.59
2019-05-12T06:28:50.639Z,101187.14
2019-05-12T06:31:25.209Z,101184.30
2019-05-12T06:34:13.700Z,101188.41
2019-05-12T06:36:39.942Z,101191.20
2019-05-12T06:39:23.434Z,101189.20
2019-05-12T06:42:02.010Z,101188.94
2019-05-12T06:44:43.709Z,101185.35
2019-05-12T06:47:21.073Z,101189.31
2019-05-12T06:49:57.141Z,101183.73
2019-05-12T06:52:29.711Z,101184.66
2019-05-12T06:55:03.774Z,101189.98
2019-05-12T06:57:40.142Z,101180.62
2019-05-12T07:00:22.324Z,101186.78
2019-05-12T07:03:04.245Z,101192.65
2019-05-12T07:09:03.452Z,101185.15
2019-05-12T07:18:23.250Z,101185.44
2019-05-12T07:27:16.235Z,101182.20
2019-05-12T07:27:36.789Z,101177.99
2019-05-12T08:00:25.180Z,101186.91
2019-05-12T08:15:53.273Z,101194.02
2019-05-12T08:18:37.045Z,101193.77
2019-05-12T08:21:49.409Z,101193.28
2019-05-12T08:27:45.271Z,101200.81
2019-05-12T08:30:57.012Z,101201.28
2019-05-12T08:33:34.540Z,101202.52
2019-05-12T08:36:52.903Z,101190.22
2019-05-12T08:42:26.373Z,101185.11
2019-05-12T08:44:58.745Z,101187.05
2019-05-12T08:47:38.983Z,101182.49
2019-05-12T09:03:06.039Z,101182.03
2019-05-12T09:09:16.138Z,101179.10
2019-05-12T09:11:47.180Z,101181.63
2019-05-12T09:14:17.631Z,101178.47
2019-05-12T09:16:48.064Z,101180.02
2019-05-12T09:19:23.935Z,101182.67
2019-05-12T09:21:50.637Z,101178.52
2019-05-12T09:24:25.326Z,101178.02
2019-05-12T09:26:53.838Z,101184.30
2019-05-12T09:29:25.256Z,101177.88
2019-05-12T09:31:59.354Z,101182.14
2019-05-12T09:34:29.331Z,101183.83
2019-05-12T09:37:01.129Z,101177.56
2019-05-12T09:51:46.051Z,101183.48
2019-05-12T09:54:16.641Z,101189.30
2019-05-12T09:56:49.881Z,101190.94
2019-05-12T09:59:23.017Z,101184.06
2019-05-12T10:01:51.386Z,101187.19
2019-05-12T10:04:22.646Z,101194.78
2019-05-12T10:06:53.547Z,101199.81
2019-05-12T10:09:24.470Z,101195.12
2019-05-12T10:12:00.547Z,101189.62
2019-05-12T10:14:27.224Z,101184.66
2019-05-12T10:16:57.696Z,101187.42
2019-05-12T10:19:28.124Z,101189.63
2019-05-12T10:21:59.669Z,101184.37
2019-05-12T10:24:34.425Z,101185.75
2019-05-12T10:27:03.791Z,101186.56
2019-05-12T10:29:34.376Z,101185.15
2019-05-12T10:32:04.850Z,101181.99
2019-05-12T10:34:40.131Z,101180.50
2019-05-12T10:37:07.465Z,101178.55
2019-05-12T10:39:37.892Z,101174.25
2019-05-12T10:42:08.352Z,101174.55
2019-05-12T10:44:40.782Z,101170.66
2019-05-12T10:47:10.897Z,101177.03
2019-05-12T10:49:41.291Z,101166.30
2019-05-12T10:52:13.804Z,101172.27
2019-05-12T10:54:43.879Z,101161.94
2019-05-12T10:57:14.335Z,101165.52
2019-05-12T10:59:48.458Z,101171.34
2019-05-12T11:02:20.389Z,101173.06
2019-05-12T11:04:49.372Z,101171.48
2019-05-12T11:07:22.865Z,101180.67
2019-05-12T11:09:54.214Z,101175.59
2019-05-12T11:12:28.919Z,101171.29
2019-05-12T11:14:56.248Z,101167.62
2019-05-12T11:17:29.981Z,101175.27
2019-05-12T11:20:00.592Z,101176.73
2019-05-12T11:22:33.268Z,101167.88
2019-05-12T11:25:04.355Z,101168.07
2019-05-12T11:27:34.893Z,101165.31
2019-05-12T11:30:06.922Z,101158.42
2019-05-12T11:32:38.019Z,101157.78
2019-05-12T11:35:08.900Z,101157.86
2019-05-12T11:37:39.358Z,101149.23
2019-05-12T11:40:09.857Z,101141.77
2019-05-12T11:42:40.321Z,101145.42
2019-05-12T11:45:10.927Z,101143.17
2019-05-12T11:47:41.360Z,101137.91
2019-05-12T11:50:13.244Z,101144.93
2019-05-12T11:52:45.942Z,101140.30
2019-05-12T11:55:15.910Z,101138.41
2019-05-12T11:57:46.388Z,101139.07
2019-05-12T12:00:18.825Z,101134.97
2019-05-12T12:02:49.338Z,101137.56
2019-05-12T12:05:20.662Z,101129.99
2019-05-12T12:07:52.914Z,101129.27
2019-05-12T12:10:23.482Z,101127.75
2019-05-12T12:12:54.060Z,101125.14
2019-05-12T12:15:26.438Z,101129.30
2019-05-12T12:17:56.729Z,101130.00
2019-05-12T12:20:27.210Z,101132.57
2019-05-12T12:23:00.169Z,101141.91
2019-05-12T12:25:33.876Z,101145.34
2019-05-12T12:28:04.358Z,101144.17
2019-05-12T12:30:35.066Z,101143.81
2019-05-12T12:33:05.573Z,101146.59
2019-05-12T12:35:35.978Z,101160.73
2019-05-12T12:38:06.503Z,101158.61
2019-05-12T12:40:36.916Z,101151.06
2019-05-12T12:43:08.248Z,101143.31
2019-05-12T12:45:40.781Z,101141.27
2019-05-12T12:48:13.567Z,101132.22
2019-05-12T12:50:44.550Z,101133.05
2019-05-12T12:53:15.092Z,101132.27
2019-05-12T12:55:46.987Z,101133.13
2019-05-12T12:58:21.133Z,101137.28
2019-05-12T13:00:54.515Z,101146.91
2019-05-12T13:03:27.708Z,101147.21
2019-05-12T13:05:54.531Z,101150.06
2019-05-12T13:08:25.005Z,101150.78
2019-05-12T13:10:55.414Z,101162.79
2019-05-12T13:13:25.961Z,101170.78
2019-05-12T13:15:56.393Z,101168.32
2019-05-12T13:18:33.024Z,101168.60
2019-05-12T13:20:59.001Z,101167.11
2019-05-12T13:23:37.986Z,101171.16
2019-05-12T13:26:04.126Z,101178.78
2019-05-12T13:28:34.237Z,101184.64
2019-05-12T13:31:09.020Z,101199.46
2019-05-12T13:33:36.977Z,101203.95
2019-05-12T13:36:07.392Z,101213.03
2019-05-12T13:38:40.384Z,101214.48
2019-05-12T13:41:17.949Z,101213.49
2019-05-12T13:43:42.136Z,101220.72
2019-05-12T13:46:12.541Z,101216.66
2019-05-12T13:48:43.401Z,101206.48
2019-05-12T13:51:15.786Z,101208.11
2019-05-12T13:53:50.122Z,101210.67
2019-05-12T13:56:19.227Z,101215.53
2019-05-12T13:58:50.290Z,101217.51
2019-05-12T14:01:21.043Z,101221.36
2019-05-12T14:03:53.604Z,101219.99
2019-05-12T14:06:31.861Z,101221.50
2019-05-12T14:08:56.781Z,101230.94
2019-05-12T14:11:27.230Z,101234.84
2019-05-12T14:13:57.761Z,101239.02
2019-05-12T14:16:28.186Z,101236.77
2019-05-12T14:19:00.430Z,101243.72
2019-05-12T14:21:33.151Z,101245.77
2019-05-12T14:24:03.132Z,101252.07
2019-05-12T14:26:33.551Z,101258.64
2019-05-12T14:29:04.086Z,101259.50
2019-05-12T14:31:36.269Z,101259.88
2019-05-12T14:34:10.543Z,101260.74
2019-05-12T14:36:38.847Z,101265.18
2019-05-12T14:39:10.397Z,101264.84
2019-05-12T14:41:44.394Z,101277.09
2019-05-12T14:44:13.739Z,101281.78
2019-05-12T14:46:49.251Z,101280.86
2019-05-12T14:49:20.413Z,101279.94
2019-05-12T14:51:48.607Z,101272.16
2019-05-12T14:54:19.082Z,101279.22
2019-05-12T14:56:55.443Z,101279.51
2019-05-12T14:59:23.767Z,101266.41
2019-05-12T15:01:59.137Z,101272.49
2019-05-12T15:04:29.869Z,101275.67
2019-05-12T15:06:59.750Z,101275.32
2019-05-12T15:09:31.200Z,101272.75
2019-05-12T15:12:03.607Z,101282.52
2019-05-12T15:14:38.004Z,101280.97
2019-05-12T15:17:05.909Z,101284.88
2019-05-12T15:19:36.288Z,101284.20
2019-05-12T15:22:10.281Z,101285.38
2019-05-12T15:24:38.866Z,101291.70
2019-05-12T15:27:09.256Z,101286.36
2019-05-12T15:29:39.690Z,101294.90
2019-05-12T15:32:10.175Z,101299.51
2019-05-12T15:34:40.629Z,101302.67
2019-05-12T15:37:11.035Z,101305.13
2019-05-12T15:39:43.899Z,101302.66
2019-05-12T15:42:14.234Z,101309.69
2019-05-12T15:44:47.317Z,101308.05
2019-05-12T15:47:16.935Z,101310.78
2019-05-12T15:49:47.382Z,101303.38
2019-05-12T15:52:17.788Z,101303.42
2019-05-12T15:54:51.314Z,101302.09
2019-05-12T15:57:20.343Z,101296.73
2019-05-12T15:59:50.759Z,101299.75
2019-05-12T16:02:23.374Z,101299.34
2019-05-12T16:04:55.018Z,101302.09
2019-05-12T16:07:29.705Z,101303.72
2019-05-12T16:09:58.501Z,101309.41
2019-05-12T16:12:28.925Z,101302.56
2019-05-12T16:14:59.477Z,101300.92
2019-05-12T16:17:30.013Z,101295.92
2019-05-12T16:20:00.484Z,101300.81
2019-05-12T16:22:37.293Z,101302.25
2019-05-12T16:25:07.448Z,101305.09
2019-05-12T16:27:37.854Z,101306.32
2019-05-12T16:30:08.645Z,101308.05
2019-05-12T16:32:43.062Z,101304.07
2019-05-12T16:35:11.516Z,101299.58
2019-05-12T16:37:44.174Z,101300.23
2019-05-12T16:40:14.757Z,101298.70
2019-05-12T16:42:53.537Z,101294.83
2019-05-12T16:45:19.979Z,101292.13
2019-05-12T16:47:49.517Z,101290.64
2019-05-12T16:50:27.653Z,101289.92
2019-05-12T16:52:53.552Z,101291.74
2019-05-12T16:55:24.266Z,101293.08
2019-05-12T16:57:56.149Z,101283.80
2019-05-12T17:00:26.795Z,101287.29
2019-05-12T17:02:58.039Z,101275.95
2019-05-12T17:05:28.655Z,101279.53
2019-05-12T17:07:59.933Z,101284.92
2019-05-12T17:10:30.421Z,101289.98
2019-05-12T17:13:00.843Z,101289.56
2019-05-12T17:15:33.700Z,101281.55
2019-05-12T17:18:04.326Z,101283.55
2019-05-12T17:20:35.046Z,101277.32
2019-05-12T17:23:05.473Z,101272.93
2019-05-12T17:25:35.935Z,101283.14
2019-05-12T17:28:06.369Z,101282.68
2019-05-12T17:30:36.849Z,101281.36
2019-05-12T17:33:07.276Z,101275.05
2019-05-12T17:35:37.763Z,101280.80
2019-05-12T17:38:11.710Z,101272.88
2019-05-12T17:40:40.338Z,101267.67
2019-05-12T17:43:12.030Z,101275.38
2019-05-12T17:45:44.292Z,101281.30
2019-05-12T17:48:14.707Z,101285.05
2019-05-12T17:50:48.561Z,101290.55
2019-05-12T17:53:17.843Z,101294.27
2019-05-12T17:55:53.174Z,101296.72
2019-05-12T17:58:20.535Z,101297.02
2019-05-12T18:00:52.003Z,101300.93
2019-05-12T18:03:25.492Z,101304.78
2019-05-12T18:05:54.696Z,101298.55
2019-05-12T18:08:32.448Z,101307.61
2019-05-12T18:10:58.161Z,101308.84
2019-05-12T18:13:28.562Z,101314.77
2019-05-12T18:15:59.137Z,101317.62
2019-05-12T18:18:32.735Z,101314.27
2019-05-12T18:21:03.573Z,101312.59
2019-05-12T18:23:34.525Z,101311.95
2019-05-12T18:26:11.441Z,101308.34
2019-05-12T18:28:37.119Z,101299.38
2019-05-12T18:31:07.597Z,101306.41
2019-05-12T18:33:50.879Z,101309.56
2019-05-12T18:36:10.203Z,101306.78
2019-05-12T18:38:40.634Z,101307.95
2019-05-12T18:41:11.114Z,101307.84
2019-05-12T18:43:43.493Z,101306.00
2019-05-12T18:46:14.174Z,101308.36
2019-05-12T18:48:44.669Z,101308.19
2019-05-12T18:51:17.372Z,101304.23
2019-05-12T18:53:47.251Z,101304.75
2019-05-12T18:56:21.830Z,101309.12
2019-05-12T18:58:49.872Z,101310.80
2019-05-12T19:01:20.342Z,101306.77
2019-05-12T19:03:51.307Z,101309.65
2019-05-12T19:06:23.412Z,101303.38
2019-05-12T19:08:54.831Z,101301.70
2019-05-12T19:11:31.726Z,101293.98
2019-05-12T19:13:57.610Z,101293.88
2019-05-12T19:16:28.236Z,101291.13
2019-05-12T19:18:58.673Z,101290.34
2019-05-12T19:21:29.125Z,101290.89
2019-05-12T19:23:59.569Z,101303.37
2019-05-12T19:26:32.891Z,101309.45
2019-05-12T19:29:04.019Z,101309.09
2019-05-12T19:31:36.656Z,101308.12
2019-05-12T19:34:18.031Z,101308.67
2019-05-12T19:36:44.852Z,101306.00
2019-05-12T19:39:10.885Z,101304.55
2019-05-12T19:41:43.461Z,101303.95
2019-05-12T19:44:13.650Z,101306.85
2019-05-12T19:46:45.925Z,101294.73
2019-05-12T19:49:20.205Z,101290.81
2019-05-12T19:51:48.376Z,101287.47
2019-05-12T19:54:19.335Z,101297.28
2019-05-12T19:56:50.951Z,101290.66
2019-05-12T19:59:23.501Z,101293.95
2019-05-12T20:01:53.745Z,101297.64
2019-05-12T20:04:33.517Z,101289.44
2019-05-12T20:06:56.387Z,101287.37
2019-05-12T20:09:27.655Z,101293.55
2019-05-12T20:12:01.255Z,101295.97
2019-05-12T20:14:30.283Z,101292.60
2019-05-12T20:17:00.823Z,101289.08
2019-05-12T20:19:31.238Z,101286.65
2019-05-12T20:22:03.505Z,101290.73
2019-05-12T20:24:33.736Z,101292.50
2019-05-12T20:27:04.218Z,101289.44
2019-05-12T20:29:35.321Z,101290.00
2019-05-12T20:32:05.883Z,101283.38
2019-05-12T20:34:48.402Z,101280.23
2019-05-12T20:37:13.444Z,101276.63
2019-05-12T20:39:40.583Z,101275.05
2019-05-12T20:42:11.072Z,101273.96
2019-05-12T20:44:43.594Z,101271.29
2019-05-12T20:47:14.054Z,101269.99
2019-05-12T20:49:50.932Z,101268.66
2019-05-12T20:52:16.606Z,101269.09
2019-05-12T20:54:49.113Z,101263.24
2019-05-12T20:57:19.143Z,101264.76
2019-05-12T20:59:49.591Z,101262.53
2019-05-12T21:02:20.056Z,101268.33
2019-05-12T21:05:00.611Z,101279.55
2019-05-12T21:07:26.812Z,101276.73
2019-05-12T21:09:55.635Z,101289.71
2019-05-12T21:12:26.119Z,101286.53
2019-05-12T21:15:12.320Z,101296.57
2019-05-12T21:17:39.394Z,101288.68
2019-05-12T21:20:00.919Z,101289.81
2019-05-12T21:22:31.384Z,101292.09
2019-05-12T21:25:03.974Z,101294.08
2019-05-12T21:27:33.976Z,101294.59
2019-05-12T21:30:10.357Z,101297.11
2019-05-12T21:32:38.232Z,101298.72
2019-05-12T21:35:19.375Z,101293.98
2019-05-12T21:37:45.572Z,101291.97
2019-05-12T21:40:14.887Z,101291.42
2019-05-12T21:42:45.559Z,101288.80
2019-05-12T21:45:20.170Z,101288.50
2019-05-12T21:47:48.226Z,101296.08
2019-05-12T21:50:24.276Z,101294.11
2019-05-12T21:52:56.405Z,101286.49
2019-05-12T21:55:26.050Z,101291.56
2019-05-12T21:57:54.928Z,101283.64
2019-05-12T22:00:34.706Z,101286.51
2019-05-12T22:03:08.097Z,101281.13
2019-05-12T22:05:50.355Z,101264.12
2019-05-12T22:08:17.661Z,101272.11
2019-05-12T22:10:44.766Z,101275.64
2019-05-12T22:13:18.175Z,101281.05
2019-05-12T22:15:51.546Z,101285.87
2019-05-12T22:18:19.654Z,101274.22
2019-05-12T22:20:54.418Z,101275.52
2019-05-12T22:23:24.587Z,101275.70
2019-05-12T22:25:58.056Z,101272.95
2019-05-12T22:28:26.657Z,101274.05
2019-05-12T22:30:57.053Z,101276.06
2019-05-12T22:33:27.512Z,101275.94
2019-05-12T22:36:04.844Z,101273.91
2019-05-12T22:38:30.089Z,101272.73
2019-05-12T22:41:00.524Z,101274.59
2019-05-12T22:43:31.506Z,101282.64
2019-05-12T22:46:04.540Z,101272.50
2019-05-12T22:48:37.339Z,101270.46
2019-05-12T22:51:17.491Z,101262.48
2019-05-12T22:53:39.523Z,101270.38
2019-05-12T22:56:17.818Z,101270.46
2019-05-12T22:58:44.169Z,101264.53
2019-05-12T23:01:14.590Z,101267.14
2019-05-12T23:03:51.240Z,101271.62
2019-05-12T23:06:23.527Z,101279.33
2019-05-12T23:08:49.567Z,101276.50
2019-05-12T23:11:23.795Z,101279.19
2019-05-12T23:13:53.827Z,101273.10
2019-05-12T23:16:27.664Z,101271.19
2019-05-12T23:19:01.327Z,101271.25
2019-05-12T23:21:28.777Z,101271.19
2019-05-12T23:24:00.761Z,101259.09
2019-05-12T23:26:35.650Z,101260.00
2019-05-12T23:29:04.261Z,101261.83
2019-05-12T23:31:34.821Z,101259.55
2019-05-12T23:34:06.412Z,101255.58
2019-05-12T23:36:39.182Z,101260.81
2019-05-12T23:39:09.789Z,101262.50
2019-05-12T23:41:40.257Z,101249.80
2019-05-12T23:44:10.701Z,101257.42
2019-05-12T23:46:43.568Z,101259.15
2019-05-12T23:49:14.388Z,101260.75
2019-05-12T23:51:44.871Z,101259.24
2019-05-12T23:54:15.357Z,101259.39
2019-05-12T23:56:45.788Z,101263.50
2019-05-12T23:59:16.227Z,101259.45
